Terminal Aerodrome Forecast
Issued by NWS

Home | Current Version | Previous Version | Text Only | Print | Product List | Glossary On
Versions: 1 2 3 4 5 6 7 8 9 10 11 12
000
FTUS46 KSGX 301125
TAFPSP
TAF
KPSP 301125Z 3012/3112 VRB05KT P6SM BKN250
     FM301900 10009KT P6SM SCT250
     FM310100 33012KT P6SM SKC
     FM310700 VRB05KT P6SM SKC=

USA.gov is the U.S. government's official web portal to all federal, state and local government web resources and services.